Time;durP1;ratioP1;P1;durP2;ratioP2;P2;SDS_P1;SDS_P2;PMS_P1;PMS_P2;Temp;Humidity;BMP_temperature;BMP_pressure;BME280_temperature;BME280_humidity;BME280_pressure;Samples;Min_cycle;Max_cycle;Signal;HPM_P1;HPM_P2
2022/01/11 00:00:31;;;;;;;14.23;7.07;;;1.10;99.90;;;;;;5096204;28;20031;-84
2022/01/11 00:02:58;;;;;;;15.47;7.73;;;1.10;99.90;;;;;;5096428;28;20172;-85
2022/01/11 00:05:48;;;;;;;16.50;6.90;;;1.10;99.90;;;;;;5114129;28;20487;-85
2022/01/11 00:08:13;;;;;;;15.67;7.73;;;1.20;99.90;;;;;;5113888;28;20028;-85
2022/01/11 00:10:54;;;;;;;14.47;7.53;;;1.20;99.90;;;;;;5096100;28;20373;-85
2022/01/11 00:13:21;;;;;;;13.80;7.17;;;1.10;99.90;;;;;;5096128;28;20384;-84
2022/01/11 00:15:48;;;;;;;17.60;7.70;;;1.10;99.90;;;;;;5114531;28;20480;-85
2022/01/11 00:18:15;;;;;;;19.47;6.93;;;1.10;99.90;;;;;;5114384;28;20035;-85
2022/01/11 00:20:41;;;;;;;14.33;7.23;;;1.00;99.90;;;;;;5095999;28;20055;-85
2022/01/11 00:25:36;;;;;;;13.77;7.17;;;1.00;99.90;;;;;;5114045;28;20040;-85
2022/01/11 00:28:04;;;;;;;16.07;7.30;;;1.00;99.90;;;;;;5096591;28;20024;-85
2022/01/11 00:30:33;;;;;;;17.43;7.33;;;0.90;99.90;;;;;;5095955;28;20020;-85
2022/01/11 00:33:03;;;;;;;17.07;7.97;;;1.00;99.90;;;;;;5114445;28;20020;-85
2022/01/11 00:35:39;;;;;;;16.83;7.47;;;1.10;99.90;;;;;;5096299;28;20027;-85
2022/01/11 00:38:07;;;;;;;11.70;6.57;;;1.10;99.90;;;;;;5096418;28;20023;-85
2022/01/11 00:40:33;;;;;;;16.67;8.00;;;1.00;99.90;;;;;;5095805;28;20419;-85
2022/01/11 00:42:59;;;;;;;20.50;8.43;;;1.00;99.90;;;;;;5096062;28;20088;-85
2022/01/11 00:45:29;;;;;;;16.67;8.40;;;1.00;99.90;;;;;;5096052;28;20032;-84
2022/01/11 00:47:55;;;;;;;16.20;8.77;;;1.00;99.90;;;;;;5114023;28;20034;-85
2022/01/11 00:50:21;;;;;;;19.43;8.17;;;0.90;99.90;;;;;;5117584;28;20024;-84
2022/01/11 00:52:47;;;;;;;20.70;9.07;;;1.00;99.90;;;;;;5100423;28;20483;-85
2022/01/11 00:55:13;;;;;;;12.37;6.90;;;0.90;99.90;;;;;;5100628;28;20063;-85
2022/01/11 00:57:39;;;;;;;16.80;7.93;;;1.00;99.90;;;;;;5099626;28;20392;-84
2022/01/11 01:00:08;;;;;;;15.40;7.80;;;1.00;99.90;;;;;;5100497;28;20028;-85
2022/01/11 01:02:38;;;;;;;15.47;7.30;;;0.90;99.90;;;;;;5099710;28;20035;-84
2022/01/11 01:05:05;;;;;;;17.43;8.13;;;0.90;99.90;;;;;;5100117;28;20032;-85
2022/01/11 01:07:30;;;;;;;19.90;8.30;;;0.90;99.90;;;;;;5099696;28;20380;-84
2022/01/11 01:10:04;;;;;;;17.50;8.13;;;0.80;99.90;;;;;;5100064;28;20077;-84
2022/01/11 01:12:30;;;;;;;21.07;9.07;;;0.70;99.90;;;;;;5117582;28;20020;-84
2022/01/11 01:14:56;;;;;;;17.03;7.83;;;0.70;99.90;;;;;;5099967;28;20032;-84
2022/01/11 01:17:22;;;;;;;18.80;8.07;;;0.70;99.90;;;;;;5099345;28;20111;-82
2022/01/11 01:19:47;;;;;;;20.23;8.63;;;0.80;99.90;;;;;;5117966;28;20055;-84
2022/01/11 01:22:13;;;;;;;15.87;8.57;;;0.80;99.90;;;;;;5099883;28;20035;-84
2022/01/11 01:24:39;;;;;;;17.67;8.63;;;0.80;99.90;;;;;;5095810;28;20044;-84
2022/01/11 01:27:05;;;;;;;19.17;8.37;;;0.70;99.90;;;;;;5097480;28;20056;-84
2022/01/11 01:29:31;;;;;;;21.20;8.80;;;0.70;99.90;;;;;;5095969;28;20030;-84
2022/01/11 01:31:58;;;;;;;21.47;9.03;;;0.70;99.90;;;;;;5096310;28;20118;-84
2022/01/11 01:34:25;;;;;;;19.20;9.00;;;0.70;99.90;;;;;;5095735;28;20035;-84
2022/01/11 01:36:51;;;;;;;20.80;9.43;;;0.70;99.90;;;;;;5095952;28;20035;-84
2022/01/11 01:39:17;;;;;;;19.73;9.10;;;0.80;99.90;;;;;;5097142;28;20028;-84
2022/01/11 01:41:46;;;;;;;20.20;9.27;;;0.90;99.90;;;;;;5095578;28;20079;-84
2022/01/11 01:44:12;;;;;;;22.67;8.83;;;0.90;99.90;;;;;;5095928;28;20579;-84
2022/01/11 01:46:38;;;;;;;21.60;9.10;;;1.00;99.90;;;;;;5095673;28;20031;-84
2022/01/11 01:49:04;;;;;;;22.03;9.43;;;1.00;99.90;;;;;;5096214;28;20028;-84
2022/01/11 01:51:30;;;;;;;19.70;9.83;;;1.00;99.90;;;;;;5095643;28;20366;-84
2022/01/11 01:54:00;;;;;;;16.77;9.23;;;1.00;99.90;;;;;;5095860;28;20031;-84
2022/01/11 01:56:27;;;;;;;21.87;9.90;;;1.00;99.90;;;;;;5095201;28;20059;-83
2022/01/11 01:58:53;;;;;;;20.27;10.17;;;1.00;99.90;;;;;;5095760;28;20026;-84
2022/01/11 02:01:21;;;;;;;26.50;10.50;;;1.00;99.90;;;;;;5095274;28;20030;-85
2022/01/11 02:03:47;;;;;;;20.47;9.83;;;1.10;99.90;;;;;;5096210;28;20077;-84
2022/01/11 02:06:19;;;;;;;21.33;9.30;;;1.10;99.90;;;;;;5095434;28;20024;-84
2022/01/11 02:08:48;;;;;;;20.98;9.13;;;1.10;99.90;;;;;;5094919;28;20035;-84
2022/01/11 02:11:19;;;;;;;19.77;9.30;;;1.10;99.90;;;;;;5096584;28;20032;-84
2022/01/11 02:13:46;;;;;;;20.98;9.90;;;1.10;99.90;;;;;;5095041;28;20425;-84
2022/01/11 02:16:13;;;;;;;21.10;9.23;;;1.10;99.90;;;;;;5095428;28;20036;-84
2022/01/11 02:18:41;;;;;;;17.97;9.63;;;1.00;99.90;;;;;;5094991;28;20055;-84
2022/01/11 02:21:07;;;;;;;19.60;9.50;;;1.10;99.90;;;;;;5095861;28;20034;-84
2022/01/11 02:23:33;;;;;;;21.83;10.43;;;1.10;99.90;;;;;;5094696;28;20059;-84
2022/01/11 02:25:59;;;;;;;23.30;9.80;;;1.10;99.90;;;;;;5114313;28;20075;-84
2022/01/11 02:28:26;;;;;;;20.97;10.07;;;1.10;99.90;;;;;;5098334;28;20035;-84
2022/01/11 02:30:53;;;;;;;19.93;9.70;;;1.20;99.90;;;;;;5116442;28;20024;-84
2022/01/11 02:33:42;;;;;;;22.37;9.70;;;1.20;99.90;;;;;;5098734;28;20039;-84
2022/01/11 02:36:12;;;;;;;16.90;9.33;;;1.20;99.90;;;;;;5098635;28;20034;-84
2022/01/11 02:38:37;;;;;;;25.10;10.90;;;1.30;99.90;;;;;;5097918;28;20110;-84
2022/01/11 02:41:04;;;;;;;21.60;9.80;;;1.20;99.90;;;;;;5098252;28;20475;-84
2022/01/11 02:43:30;;;;;;;18.13;9.50;;;1.30;99.90;;;;;;5097902;28;20039;-84
2022/01/11 02:45:58;;;;;;;21.77;9.47;;;1.40;99.90;;;;;;5116249;28;20024;-84
2022/01/11 02:48:24;;;;;;;22.77;10.10;;;1.40;99.90;;;;;;5097941;28;20119;-84
2022/01/11 02:50:49;;;;;;;22.60;10.23;;;1.40;99.90;;;;;;5097725;28;20028;-83
2022/01/11 02:53:17;;;;;;;20.13;10.73;;;1.50;99.90;;;;;;5115930;28;20537;-84
2022/01/11 02:55:43;;;;;;;23.73;9.70;;;1.50;99.90;;;;;;5097494;28;20041;-83
2022/01/11 02:58:10;;;;;;;25.40;10.17;;;1.50;99.90;;;;;;5098174;28;20536;-84
2022/01/11 03:00:38;;;;;;;26.30;10.47;;;1.50;99.90;;;;;;5097682;28;20028;-84
2022/01/11 03:03:14;;;;;;;21.80;10.10;;;1.40;99.90;;;;;;5116010;28;20071;-83
2022/01/11 03:06:02;;;;;;;21.03;9.67;;;1.50;99.90;;;;;;5115303;28;20062;-83
2022/01/11 03:08:34;;;;;;;24.40;9.57;;;1.50;99.90;;;;;;5115727;28;20024;-83
2022/01/11 03:11:00;;;;;;;17.40;8.77;;;1.50;99.90;;;;;;5114887;28;20024;-83
2022/01/11 03:13:26;;;;;;;21.87;10.27;;;1.50;99.90;;;;;;5097186;28;20054;-83
2022/01/11 03:15:53;;;;;;;23.30;9.67;;;1.40;99.90;;;;;;5096750;28;20030;-83
2022/01/11 03:18:20;;;;;;;23.77;10.53;;;1.40;99.90;;;;;;5097716;28;20465;-83
2022/01/11 03:20:48;;;;;;;20.93;10.37;;;1.30;99.90;;;;;;5114929;28;20031;-83
2022/01/11 03:23:16;;;;;;;22.47;9.87;;;1.30;99.90;;;;;;5097538;28;20078;-83
2022/01/11 03:25:42;;;;;;;20.70;9.90;;;1.40;99.90;;;;;;5115081;28;20043;-83
2022/01/11 03:28:09;;;;;;;22.17;10.43;;;1.40;99.90;;;;;;5097247;28;20027;-83
2022/01/11 03:30:35;;;;;;;32.37;10.77;;;1.50;99.90;;;;;;5097015;28;20452;-84
2022/01/11 03:33:00;;;;;;;26.63;10.27;;;1.50;99.90;;;;;;5097409;28;20039;-83
2022/01/11 03:35:28;;;;;;;22.67;10.87;;;1.50;99.90;;;;;;5097274;28;20020;-83
2022/01/11 03:37:54;;;;;;;23.37;10.77;;;1.50;99.90;;;;;;5096501;28;20118;-83
2022/01/11 03:40:23;;;;;;;26.07;10.03;;;1.40;99.90;;;;;;5097151;28;20024;-84
2022/01/11 03:42:48;;;;;;;22.17;10.93;;;1.40;99.90;;;;;;5114488;28;20036;-83
2022/01/11 03:45:16;;;;;;;22.30;10.07;;;1.40;99.90;;;;;;5115208;28;20379;-84
2022/01/11 03:47:42;;;;;;;25.43;10.37;;;1.40;99.90;;;;;;5096690;28;20035;-83
2022/01/11 03:50:10;;;;;;;30.60;10.90;;;1.40;99.90;;;;;;5097063;28;20031;-83
2022/01/11 03:52:36;;;;;;;23.77;10.70;;;1.20;99.90;;;;;;5113204;28;20481;-83
2022/01/11 03:55:06;;;;;;;24.40;11.03;;;1.20;99.90;;;;;;5096939;28;20050;-83
2022/01/11 03:57:32;;;;;;;27.10;11.57;;;1.20;99.90;;;;;;5096466;28;20062;-82
2022/01/11 04:00:00;;;;;;;21.87;10.67;;;1.20;99.90;;;;;;5097004;28;20046;-83
2022/01/11 04:02:27;;;;;;;23.80;10.80;;;1.20;99.90;;;;;;5114240;28;20078;-84
2022/01/11 04:04:53;;;;;;;24.93;11.40;;;1.20;99.90;;;;;;5096173;28;20043;-84
2022/01/11 04:07:25;;;;;;;25.47;11.30;;;1.20;99.90;;;;;;5096779;28;20026;-84
2022/01/11 04:09:52;;;;;;;27.90;11.13;;;1.20;99.90;;;;;;5096378;28;20361;-83
2022/01/11 04:12:19;;;;;;;23.83;10.80;;;1.20;99.90;;;;;;5096832;28;20027;-83
2022/01/11 04:14:45;;;;;;;24.23;11.57;;;1.30;99.90;;;;;;5114076;28;20161;-83
2022/01/11 04:17:12;;;;;;;24.07;10.37;;;1.20;99.90;;;;;;5096687;28;20051;-83
2022/01/11 04:19:38;;;;;;;25.87;10.90;;;1.30;99.90;;;;;;5096073;28;20028;-83
2022/01/11 04:22:04;;;;;;;24.53;10.60;;;1.30;99.90;;;;;;5095769;28;20053;-83
2022/01/11 04:24:30;;;;;;;23.63;11.00;;;1.30;99.90;;;;;;5096289;28;20065;-83
2022/01/11 04:26:59;;;;;;;27.37;11.30;;;1.30;99.90;;;;;;5095907;28;20030;-83
2022/01/11 04:29:25;;;;;;;22.80;10.03;;;1.40;99.90;;;;;;5096280;28;20023;-83
2022/01/11 04:31:50;;;;;;;25.73;10.43;;;1.40;99.90;;;;;;5113983;28;20081;-83
2022/01/11 04:34:16;;;;;;;26.17;10.97;;;1.40;99.90;;;;;;5096417;28;20103;-83
2022/01/11 04:36:42;;;;;;;23.70;10.67;;;1.40;99.90;;;;;;5095988;28;20024;-83
2022/01/11 04:39:10;;;;;;;24.80;10.60;;;1.50;99.90;;;;;;5096811;28;20528;-83
2022/01/11 04:41:37;;;;;;;25.00;11.37;;;1.50;99.90;;;;;;5113742;28;20032;-83
2022/01/11 04:44:03;;;;;;;19.20;9.67;;;1.60;99.90;;;;;;5096043;28;20039;-83
2022/01/11 04:46:29;;;;;;;25.53;10.43;;;1.60;99.90;;;;;;5096201;28;20039;-83
2022/01/11 04:48:55;;;;;;;26.60;10.53;;;1.50;99.90;;;;;;5113768;28;20028;-83
2022/01/11 04:51:24;;;;;;;23.50;10.63;;;1.60;99.90;;;;;;5096145;28;20027;-83
2022/01/11 04:53:50;;;;;;;19.80;9.67;;;1.60;99.90;;;;;;5095893;28;20052;-83
2022/01/11 04:56:16;;;;;;;21.67;9.90;;;1.70;99.90;;;;;;5096085;28;20027;-83
2022/01/11 04:58:42;;;;;;;20.87;10.17;;;1.70;99.90;;;;;;5095711;28;20472;-83
2022/01/11 05:01:08;;;;;;;24.87;10.20;;;1.70;99.90;;;;;;5096076;28;20073;-83
2022/01/11 05:03:34;;;;;;;20.93;10.40;;;1.70;99.90;;;;;;5096231;28;20365;-84
2022/01/11 05:06:01;;;;;;;30.83;10.10;;;1.70;99.90;;;;;;5096184;28;20019;-83
2022/01/11 05:08:26;;;;;;;22.03;9.67;;;1.70;99.90;;;;;;5114257;28;20023;-83
2022/01/11 05:10:52;;;;;;;23.07;9.80;;;1.80;99.90;;;;;;5095356;28;20035;-86
2022/01/11 05:13:20;;;;;;;21.37;10.23;;;1.80;99.90;;;;;;5096257;28;20114;-84
2022/01/11 05:15:46;;;;;;;23.70;10.00;;;1.70;99.90;;;;;;5113578;28;20087;-83
2022/01/11 05:18:12;;;;;;;23.07;10.10;;;1.70;99.90;;;;;;5096024;28;20058;-83
2022/01/11 05:20:39;;;;;;;29.37;10.33;;;1.70;99.90;;;;;;5095512;28;20051;-83
2022/01/11 05:23:05;;;;;;;22.80;9.83;;;1.70;99.90;;;;;;5095856;28;20027;-83
2022/01/11 05:25:32;;;;;;;25.00;10.83;;;1.80;99.90;;;;;;5095914;28;20055;-84
2022/01/11 05:28:00;;;;;;;23.23;9.33;;;1.90;99.90;;;;;;5095631;28;20028;-83
2022/01/11 05:30:28;;;;;;;20.63;9.63;;;1.90;99.90;;;;;;5095944;28;20035;-83
2022/01/11 05:32:54;;;;;;;24.50;9.73;;;1.90;99.90;;;;;;5113355;28;20468;-84
2022/01/11 05:35:21;;;;;;;22.70;10.00;;;1.90;99.90;;;;;;5097779;28;20028;-83
2022/01/11 05:37:47;;;;;;;19.70;9.53;;;1.90;99.90;;;;;;5099014;28;20023;-83
2022/01/11 05:40:15;;;;;;;24.63;9.27;;;1.90;99.90;;;;;;5117528;28;20072;-84
2022/01/11 05:42:42;;;;;;;22.33;9.00;;;1.90;99.90;;;;;;5098990;28;20039;-82
2022/01/11 05:45:09;;;;;;;25.83;10.13;;;1.90;99.90;;;;;;5099637;28;20513;-83
2022/01/11 05:47:35;;;;;;;23.47;9.77;;;1.90;99.90;;;;;;5117441;28;20047;-83
2022/01/11 05:50:03;;;;;;;27.33;10.13;;;1.90;99.90;;;;;;5099011;28;20480;-83
2022/01/11 05:52:29;;;;;;;21.10;9.53;;;1.80;99.90;;;;;;5117356;28;20023;-84
2022/01/11 05:54:55;;;;;;;24.03;9.83;;;1.90;99.90;;;;;;5098885;28;20459;-83
2022/01/11 05:57:20;;;;;;;19.93;9.57;;;2.00;99.90;;;;;;5099164;28;20023;-83
2022/01/11 05:59:46;;;;;;;24.67;10.33;;;2.00;99.90;;;;;;5098760;28;20031;-83
2022/01/11 06:02:11;;;;;;;23.43;9.50;;;2.00;99.90;;;;;;5116593;28;20042;-83
2022/01/11 06:04:37;;;;;;;20.60;9.90;;;2.00;99.90;;;;;;5099023;28;20030;-84
2022/01/11 06:07:03;;;;;;;27.70;11.20;;;2.00;99.90;;;;;;5098141;28;20024;-83
2022/01/11 06:09:28;;;;;;;22.43;9.97;;;2.00;99.90;;;;;;5098926;28;20027;-83
2022/01/11 06:11:55;;;;;;;20.97;9.53;;;2.00;99.90;;;;;;5098725;28;20028;-83
2022/01/11 06:14:21;;;;;;;22.43;9.73;;;2.00;99.90;;;;;;5098680;28;20088;-83
2022/01/11 06:16:47;;;;;;;23.70;10.47;;;2.00;99.90;;;;;;5116336;28;20032;-83
2022/01/11 06:19:13;;;;;;;24.60;10.10;;;2.10;99.90;;;;;;5098859;28;20429;-83
2022/01/11 06:21:39;;;;;;;21.73;9.97;;;2.10;99.90;;;;;;5116601;28;20054;-84
2022/01/11 06:24:05;;;;;;;25.30;10.90;;;2.10;99.90;;;;;;5098345;28;20448;-84
2022/01/11 06:26:31;;;;;;;23.20;9.93;;;2.10;99.90;;;;;;5098901;28;20028;-84
2022/01/11 06:28:57;;;;;;;27.73;10.77;;;2.10;99.90;;;;;;5098014;28;20582;-84
2022/01/11 06:31:24;;;;;;;26.90;10.83;;;2.10;99.90;;;;;;5098730;28;20047;-84
2022/01/11 06:33:49;;;;;;;24.23;11.10;;;2.10;99.90;;;;;;5115870;28;20428;-84
2022/01/11 06:36:15;;;;;;;25.53;10.17;;;2.20;99.90;;;;;;5098414;28;20028;-84
2022/01/11 06:38:42;;;;;;;25.43;9.27;;;2.20;99.90;;;;;;5098146;28;20123;-83
2022/01/11 06:41:09;;;;;;;20.97;9.90;;;2.10;99.90;;;;;;5098655;28;20028;-84
2022/01/11 06:43:35;;;;;;;24.57;10.43;;;2.20;99.90;;;;;;5097841;28;20039;-84
2022/01/11 06:46:02;;;;;;;22.30;10.30;;;2.20;99.90;;;;;;5097545;28;20038;-84
2022/01/11 06:48:28;;;;;;;22.53;10.87;;;2.20;99.90;;;;;;5115769;28;20034;-83
2022/01/11 06:50:54;;;;;;;25.90;11.30;;;2.20;99.90;;;;;;5097274;28;20210;-84
2022/01/11 06:53:20;;;;;;;26.53;11.07;;;2.30;99.90;;;;;;5098204;28;20058;-84
2022/01/11 06:55:45;;;;;;;31.87;10.67;;;2.30;99.90;;;;;;5115436;28;20024;-85
2022/01/11 06:58:11;;;;;;;25.87;10.50;;;2.30;99.90;;;;;;5099989;28;20031;-85
2022/01/11 07:00:37;;;;;;;26.47;11.10;;;2.30;99.90;;;;;;5098339;28;20030;-85
2022/01/11 07:03:03;;;;;;;24.70;10.53;;;2.30;99.90;;;;;;5097348;28;20084;-82
2022/01/11 07:05:28;;;;;;;29.10;10.70;;;2.30;99.90;;;;;;5097845;28;20035;-83
2022/01/11 07:07:54;;;;;;;22.73;10.57;;;2.30;99.90;;;;;;5096687;28;20038;-82
2022/01/11 07:10:19;;;;;;;24.23;9.80;;;2.30;99.90;;;;;;5097584;28;20532;-84
2022/01/11 07:12:45;;;;;;;23.53;9.47;;;2.30;99.90;;;;;;5096907;28;20034;-84
2022/01/11 07:15:11;;;;;;;26.70;11.13;;;2.40;99.90;;;;;;5097973;28;20115;-84
2022/01/11 07:17:38;;;;;;;24.27;10.67;;;2.40;99.90;;;;;;5097402;28;20050;-85
2022/01/11 07:20:05;;;;;;;22.07;10.43;;;2.40;99.90;;;;;;5097214;28;20034;-84
2022/01/11 07:22:31;;;;;;;25.93;10.27;;;2.40;99.90;;;;;;5097502;28;20092;-84
2022/01/11 07:24:57;;;;;;;26.30;10.30;;;2.50;99.90;;;;;;5093586;28;20493;-84
2022/01/11 07:27:22;;;;;;;26.50;11.40;;;2.50;99.90;;;;;;5095878;28;20469;-85
2022/01/11 07:29:48;;;;;;;26.00;10.40;;;2.40;99.90;;;;;;5093554;28;20069;-84
2022/01/11 07:32:14;;;;;;;26.07;10.43;;;2.40;99.90;;;;;;5094622;28;20039;-86
2022/01/11 07:34:41;;;;;;;26.80;9.73;;;2.50;99.90;;;;;;5093717;28;20028;-86
2022/01/11 07:37:06;;;;;;;23.40;10.87;;;2.50;99.90;;;;;;5094305;28;20024;-86
2022/01/11 07:39:32;;;;;;;24.37;9.90;;;2.50;99.90;;;;;;5094636;28;20047;-86
2022/01/11 07:41:58;;;;;;;20.20;9.27;;;2.50;99.90;;;;;;5093067;28;20047;-86
2022/01/11 07:44:25;;;;;;;21.63;9.90;;;2.50;99.90;;;;;;5093747;28;20043;-86
2022/01/11 07:46:52;;;;;;;19.40;10.87;;;2.50;99.90;;;;;;5093081;28;20032;-86
2022/01/11 07:49:18;;;;;;;23.70;10.57;;;2.50;99.90;;;;;;5094806;28;20538;-85
2022/01/11 07:51:44;;;;;;;24.77;10.43;;;2.50;99.90;;;;;;5094538;28;20032;-84
2022/01/11 07:54:10;;;;;;;24.80;11.67;;;2.50;99.90;;;;;;5092994;28;20115;-86
2022/01/11 07:56:36;;;;;;;27.33;10.83;;;2.50;99.90;;;;;;5093156;28;20131;-86
2022/01/11 07:59:02;;;;;;;26.77;10.40;;;2.50;99.90;;;;;;5092433;28;20036;-85
2022/01/11 08:01:27;;;;;;;30.73;10.70;;;2.50;99.90;;;;;;5093080;28;20028;-86
2022/01/11 08:03:53;;;;;;;25.73;10.17;;;2.50;99.90;;;;;;5092709;28;20453;-86
2022/01/11 08:06:19;;;;;;;20.93;9.60;;;2.50;99.90;;;;;;5093431;28;20028;-82
2022/01/11 08:08:45;;;;;;;19.53;9.30;;;2.60;99.90;;;;;;5093335;28;20024;-82
2022/01/11 08:11:11;;;;;;;26.20;11.73;;;2.60;99.90;;;;;;5094113;28;20028;-82
2022/01/11 08:13:37;;;;;;;19.17;9.10;;;2.60;99.90;;;;;;5093400;28;20027;-82
2022/01/11 08:16:03;;;;;;;19.87;9.50;;;2.60;99.90;;;;;;5092949;28;20032;-82
2022/01/11 08:18:29;;;;;;;21.83;9.33;;;2.60;99.90;;;;;;5094170;28;20035;-82
2022/01/11 08:20:55;;;;;;;19.40;9.37;;;2.60;99.90;;;;;;5092637;28;20020;-82
2022/01/11 08:23:20;;;;;;;19.77;8.90;;;2.60;99.90;;;;;;5093790;28;20032;-84
2022/01/11 08:25:46;;;;;;;22.10;9.33;;;2.60;99.90;;;;;;5110279;28;20051;-82
2022/01/11 08:28:13;;;;;;;23.73;9.90;;;2.70;99.90;;;;;;5096345;28;20020;-82
2022/01/11 08:30:39;;;;;;;21.87;9.30;;;2.60;99.90;;;;;;5096339;28;20020;-84
2022/01/11 08:33:05;;;;;;;23.17;9.43;;;2.70;99.90;;;;;;5113960;28;20074;-84
2022/01/11 08:35:32;;;;;;;17.57;9.00;;;2.80;99.90;;;;;;5096565;28;20023;-85
2022/01/11 08:37:58;;;;;;;19.93;9.07;;;2.80;99.90;;;;;;5095922;28;20027;-84
2022/01/11 08:40:25;;;;;;;21.03;9.47;;;2.80;99.90;;;;;;5096391;28;20035;-85
2022/01/11 08:42:52;;;;;;;21.20;9.23;;;2.80;99.90;;;;;;5095579;28;20040;-85
2022/01/11 08:45:18;;;;;;;17.50;9.03;;;2.80;99.90;;;;;;5096017;28;20039;-84
2022/01/11 08:47:45;;;;;;;21.00;9.00;;;2.90;99.90;;;;;;5096014;28;20522;-84
2022/01/11 08:50:12;;;;;;;23.43;9.70;;;2.90;99.90;;;;;;5095684;28;20465;-84
2022/01/11 08:52:39;;;;;;;19.77;9.50;;;2.90;99.90;;;;;;5096151;28;20027;-84
2022/01/11 08:55:07;;;;;;;21.53;9.10;;;2.90;99.90;;;;;;5095700;28;20050;-84
2022/01/11 08:57:33;;;;;;;22.43;9.07;;;2.80;99.90;;;;;;5096262;28;20111;-84
2022/01/11 08:59:59;;;;;;;22.20;9.33;;;2.90;99.90;;;;;;5095979;28;20024;-84
2022/01/11 09:02:25;;;;;;;20.90;9.00;;;2.90;99.90;;;;;;5096487;28;20039;-83
2022/01/11 09:04:53;;;;;;;21.97;9.70;;;3.00;99.90;;;;;;5095674;28;20400;-83
2022/01/11 09:07:19;;;;;;;22.33;9.10;;;3.00;99.90;;;;;;5096077;28;20032;-84
2022/01/11 09:09:45;;;;;;;18.67;9.43;;;3.00;99.90;;;;;;5097213;28;20023;-83
2022/01/11 09:12:13;;;;;;;20.17;9.10;;;3.00;99.90;;;;;;5099153;28;20032;-84
2022/01/11 09:14:39;;;;;;;18.47;9.23;;;3.00;99.90;;;;;;5099940;28;20032;-82
2022/01/11 09:17:06;;;;;;;22.23;9.53;;;3.00;99.90;;;;;;5099542;28;20387;-85
2022/01/11 09:19:32;;;;;;;19.30;8.43;;;3.10;99.90;;;;;;5099943;28;20023;-85
2022/01/11 09:21:59;;;;;;;20.20;9.23;;;3.10;99.90;;;;;;5099403;28;20039;-85
2022/01/11 09:24:29;;;;;;;22.80;9.03;;;3.20;99.90;;;;;;5117554;28;20055;-83
2022/01/11 09:26:56;;;;;;;23.10;9.20;;;3.30;99.90;;;;;;5099308;28;20035;-83
2022/01/11 09:29:22;;;;;;;22.40;8.57;;;3.30;99.90;;;;;;5100026;28;20023;-83
2022/01/11 09:31:48;;;;;;;23.90;9.37;;;3.40;99.90;;;;;;5099525;28;20028;-83
2022/01/11 09:34:14;;;;;;;19.50;8.80;;;3.40;99.90;;;;;;5117154;28;20024;-82
2022/01/11 09:36:40;;;;;;;15.53;8.20;;;3.40;99.90;;;;;;5117649;28;20445;-84
2022/01/11 09:39:06;;;;;;;16.30;8.20;;;3.40;99.90;;;;;;5098924;28;20034;-84
2022/01/11 09:41:33;;;;;;;20.13;9.00;;;3.40;99.90;;;;;;5099544;28;20020;-85
2022/01/11 09:43:59;;;;;;;18.93;9.17;;;3.50;99.90;;;;;;5117182;28;20088;-84
2022/01/11 09:46:25;;;;;;;18.70;9.10;;;3.50;99.90;;;;;;5099549;28;20460;-85
2022/01/11 09:48:50;;;;;;;17.90;8.80;;;3.50;99.90;;;;;;5099398;28;20028;-85
2022/01/11 09:51:16;;;;;;;19.90;8.83;;;3.50;99.90;;;;;;5117130;28;20098;-84
2022/01/11 09:53:42;;;;;;;18.97;9.43;;;3.60;99.90;;;;;;5099285;28;20028;-85
2022/01/11 09:56:09;;;;;;;24.80;9.63;;;3.60;99.90;;;;;;5098793;28;20465;-84
2022/01/11 09:58:35;;;;;;;18.17;9.07;;;3.70;99.90;;;;;;5099097;28;20019;-82
2022/01/11 10:01:03;;;;;;;18.57;9.13;;;3.70;99.90;;;;;;5098553;28;20024;-84
2022/01/11 10:03:28;;;;;;;19.07;8.60;;;3.70;99.90;;;;;;5098841;28;20039;-84
2022/01/11 10:05:55;;;;;;;19.03;9.70;;;3.70;99.90;;;;;;5098642;28;20027;-83
2022/01/11 10:08:27;;;;;;;19.70;9.30;;;3.80;99.90;;;;;;5099074;28;20540;-84
2022/01/11 10:10:57;;;;;;;17.60;9.00;;;3.80;99.90;;;;;;5098640;28;20031;-82
2022/01/11 10:13:40;;;;;;;23.07;9.97;;;3.80;99.90;;;;;;5098972;28;20051;-84
2022/01/11 10:16:19;;;;;;;19.93;8.80;;;3.80;99.90;;;;;;5098287;28;20535;-84
2022/01/11 10:18:45;;;;;;;17.30;8.53;;;3.90;99.90;;;;;;5098884;28;20036;-84
2022/01/11 10:21:35;;;;;;;17.73;8.30;;;3.90;99.90;;;;;;5098017;28;20382;-84
2022/01/11 10:24:22;;;;;;;17.97;8.27;;;3.90;99.90;;;;;;5097975;28;20084;-83
2022/01/11 10:26:48;;;;;;;24.73;9.07;;;4.00;99.90;;;;;;5116612;28;20432;-84
2022/01/11 10:29:30;;;;;;;19.37;8.90;;;4.00;99.90;;;;;;5098125;28;20222;-83
2022/01/11 10:31:59;;;;;;;17.27;8.75;;;4.10;99.90;;;;;;5098114;28;20039;-82
2022/01/11 10:34:27;;;;;;;17.47;8.97;;;4.10;99.90;;;;;;5098493;28;20032;-83
2022/01/11 10:36:53;;;;;;;20.87;9.60;;;4.10;99.90;;;;;;5098546;28;20473;-84
2022/01/11 10:39:31;;;;;;;21.00;9.97;;;4.10;99.90;;;;;;5097923;28;20034;-85
2022/01/11 10:41:58;;;;;;;22.23;10.60;;;4.20;99.90;;;;;;5097707;28;20031;-84
2022/01/11 10:44:45;;;;;;;19.50;9.87;;;4.20;99.90;;;;;;5098449;28;20035;-84
2022/01/11 10:47:22;;;;;;;19.90;9.87;;;4.20;99.90;;;;;;5115580;28;20032;-84
2022/01/11 10:49:50;;;;;;;22.53;10.00;;;4.30;99.90;;;;;;5098298;28;20030;-84
2022/01/11 10:52:19;;;;;;;19.47;9.47;;;4.30;99.90;;;;;;5097559;28;20176;-85
2022/01/11 10:54:45;;;;;;;17.77;9.13;;;4.40;99.90;;;;;;5097936;28;20040;-84
2022/01/11 10:57:26;;;;;;;22.17;8.87;;;4.50;99.90;;;;;;5097432;28;20054;-84
2022/01/11 11:00:15;;;;;;;16.67;8.07;;;4.50;99.90;;;;;;5098306;28;20063;-83
2022/01/11 11:02:42;;;;;;;17.13;9.23;;;4.60;99.90;;;;;;5097906;28;20055;-84
2022/01/11 11:05:17;;;;;;;19.93;8.50;;;4.60;99.90;;;;;;5115404;28;20034;-83
2022/01/11 11:07:52;;;;;;;17.53;8.30;;;4.70;99.90;;;;;;5115892;28;20026;-82
2022/01/11 11:10:35;;;;;;;16.90;7.87;;;4.70;99.90;;;;;;5097163;28;20024;-83
2022/01/11 11:13:01;;;;;;;20.07;8.77;;;4.70;99.90;;;;;;5097123;28;20027;-83
2022/01/11 11:15:33;;;;;;;16.60;8.80;;;4.80;99.90;;;;;;5115702;28;20078;-83
2022/01/11 11:17:58;;;;;;;16.92;8.25;;;4.80;99.90;;;;;;5097055;28;20465;-83
2022/01/11 11:20:24;;;;;;;18.77;9.73;;;4.80;99.90;;;;;;5097838;28;20124;-83
2022/01/11 11:22:51;;;;;;;21.20;9.23;;;4.90;99.90;;;;;;5097576;28;20126;-85
2022/01/11 11:25:17;;;;;;;18.27;8.93;;;4.90;99.90;;;;;;5097058;28;20126;-84
2022/01/11 11:27:43;;;;;;;21.47;9.27;;;4.90;99.90;;;;;;5097627;28;20494;-85
2022/01/11 11:30:09;;;;;;;18.23;8.67;;;5.00;99.90;;;;;;5096848;28;20036;-84
2022/01/11 11:32:35;;;;;;;17.97;9.17;;;5.00;99.90;;;;;;5096432;28;20042;-84
2022/01/11 11:35:01;;;;;;;24.83;9.30;;;5.00;99.90;;;;;;5096718;28;20028;-83
2022/01/11 11:37:35;;;;;;;21.30;9.37;;;5.10;99.90;;;;;;5097148;28;20110;-84
2022/01/11 11:40:07;;;;;;;16.77;8.67;;;5.20;99.90;;;;;;5097033;28;20026;-84
2022/01/11 11:42:34;;;;;;;20.58;8.65;;;5.20;99.90;;;;;;5097173;28;20480;-84
2022/01/11 11:45:00;;;;;;;18.87;8.67;;;5.20;99.90;;;;;;5114847;28;20107;-83
2022/01/11 11:47:34;;;;;;;18.23;8.63;;;5.30;99.90;;;;;;5097100;28;20062;-84
2022/01/11 11:50:05;;;;;;;18.63;9.20;;;5.30;99.90;;;;;;5096621;28;20452;-83
2022/01/11 11:52:35;;;;;;;19.07;9.00;;;5.40;99.90;;;;;;5097271;28;20055;-83
2022/01/11 11:55:06;;;;;;;22.13;9.60;;;5.50;99.90;;;;;;5096544;28;20109;-83
2022/01/11 11:57:34;;;;;;;17.73;9.37;;;5.50;99.90;;;;;;5096804;28;20039;-83
2022/01/11 12:00:22;;;;;;;19.13;8.80;;;5.60;99.90;;;;;;5096834;28;20051;-82
2022/01/11 12:02:54;;;;;;;14.13;7.87;;;5.60;99.90;;;;;;5114319;28;20089;-83
2022/01/11 12:05:42;;;;;;;18.00;7.85;;;5.70;99.90;;;;;;5114372;28;20019;-83
2022/01/11 12:08:34;;;;;;;20.90;8.63;;;5.70;99.90;;;;;;5095984;28;20039;-84
2022/01/11 12:11:06;;;;;;;16.83;8.38;;;5.70;99.90;;;;;;5096964;28;20020;-83
2022/01/11 12:13:43;;;;;;;17.20;7.87;;;5.80;99.90;;;;;;5096605;28;20024;-84
2022/01/11 12:16:24;;;;;;;17.97;7.70;;;5.80;99.90;;;;;;5096228;28;20114;-84
2022/01/11 12:18:58;;;;;;;17.47;8.50;;;5.90;99.90;;;;;;5096639;28;20031;-84
2022/01/11 12:21:26;;;;;;;13.53;7.67;;;6.00;99.90;;;;;;5095939;28;20031;-83
2022/01/11 12:23:54;;;;;;;15.70;8.07;;;6.00;99.90;;;;;;5096097;28;20019;-82
2022/01/11 12:26:30;;;;;;;15.47;7.43;;;6.10;99.90;;;;;;5095983;28;20026;-83
2022/01/11 12:29:12;;;;;;;15.13;7.43;;;6.20;99.90;;;;;;5096611;28;20098;-83
2022/01/11 12:32:00;;;;;;;15.73;7.17;;;6.20;99.90;;;;;;5097102;28;20032;-84
2022/01/11 12:34:54;;;;;;;12.00;6.90;;;6.30;99.90;;;;;;5095440;28;20024;-83
2022/01/11 12:37:30;;;;;;;13.63;6.97;;;6.30;99.90;;;;;;5110020;28;20119;-84
2022/01/11 12:40:14;;;;;;;14.50;7.07;;;6.30;99.90;;;;;;5114119;28;20083;-83
2022/01/11 12:43:03;;;;;;;13.90;6.53;;;6.30;99.90;;;;;;5096146;28;20104;-83
2022/01/11 12:45:54;;;;;;;15.03;6.80;;;6.30;99.90;;;;;;5100511;28;20052;-83
2022/01/11 12:48:45;;;;;;;13.90;6.17;;;6.30;99.90;;;;;;5117854;28;20099;-83
2022/01/11 12:51:28;;;;;;;13.00;6.70;;;6.30;99.90;;;;;;5117864;28;20020;-83